• Join FlightAware (Why Join?)
  • Login
  • US Flag GB Flag 
20:34 EST


 

Airport Tracker/Info


-or-


 

Live Flight TrackerFlight Track Log ✈ JBU917 ✈ 22-Apr-2013 ✈ KJFK - KORD

Flight Track Log - Related Links

Times and Time Zones

All times are in EDT time to prevent confusion due to time zone crossing. See the JBU917 flight status page for this flight to view local times or setup timezone preferences in your user account.

Time Position Orientation Groundspeed Altitude Reporting Facility
EDT Latitude Longitude Course Direction KTS MPH feet Rate Location/Type
17:37 40.6333 -73.7167 304° West 176 203 2,800  Level New York TRACON
17:38 40.6333 -73.6333 90° East 237 273 5,200 2,580 Climbing New York TRACON
17:39 40.8561 -74.1954 304° West  Level FlightAware Approximate
17:39 40.7000 -73.5833 30° Northeast 267 307 8,000  Level New York TRACON
17:40 40.9147 -74.3045 306° West  Level FlightAware Approximate
17:40 40.7667 -73.5500 21° North 299 344 10,600  Level New York TRACON
17:41 40.9765 -74.4098 323° Northwest  Level FlightAware Approximate
17:41 40.8500 -73.6167 329° Northwest 342 394 12,400  Level New York TRACON
17:42 41.0396 -74.5126 304° West  Level FlightAware Approximate
17:42 40.9167 -73.7000 317° Northwest 350 403 15,100  Level New York TRACON
17:43 41.0000 -73.8000 318° Northwest 359 413 17,000 480 Climbing New York TRACON
17:45 41.0678 -74.0600 289° West 347 399 16,900 -60 Descending New York Center
17:46 41.0825 -74.2011 278° West 347 399 16,900  Level New York Center
17:47 41.0978 -74.3200 280° West 356 410 16,900  Level New York Center
17:48 41.1122 -74.4614 278° West 356 410 16,900  Level New York Center
17:49 41.1253 -74.5750 279° West 356 410 17,000 240 Climbing New York Center
17:50 41.1478 -74.7167 282° West 356 410 17,500 900 Climbing New York Center
17:51 41.1864 -74.8100 299° West 351 404 18,800 1,800 Climbing New York Center
17:52 41.2442 -74.9431 300° West 370 426 21,100 1,980 Climbing New York Center
17:53 41.2981 -75.0653 300° West 382 440 22,900 1,680 Climbing New York Center
17:54 41.3517 -75.1931 299° West 387 445 24,600 1,620 Climbing New York Center
17:55 41.4053 -75.3181 300° West 392 451 26,200 1,620 Climbing New York Center
17:56 41.4625 -75.4494 300° West 398 458 27,800 1,560 Climbing New York Center
17:57 41.5050 -75.5853 293° West 398 458 29,400 1,560 Climbing New York Center
17:58 41.5433 -75.7183 291° West 387 445 31,000 1,380 Climbing New York Center
17:59 41.5817 -75.8486 292° West 382 440 32,300 1,200 Climbing New York Center
18:00 41.6194 -75.9819 291° West 382 440 33,500 840 Climbing New York Center
18:01 41.6553 -76.1125 290° West 376 433 34,000 240 Climbing New York Center
18:02 41.6928 -76.2489 290° West 381 438 34,000  Level New York Center
18:03 41.7319 -76.3911 290° West 399 459 34,100 540 Climbing New York Center
18:06 41.8264 -76.7261 291° West 384 442 36,000 540 Climbing Cleveland Center
18:07 41.8664 -76.8661 291° West 390 449 36,000  Level Cleveland Center
18:08 41.9044 -77.0061 290° West 395 455 36,000  Level Cleveland Center
18:09 41.9400 -77.1467 289° West 400 460 36,000  Level Cleveland Center
18:10 41.9794 -77.2897 290° West 405 466 36,000  Level Cleveland Center
18:11 42.0192 -77.4358 290° West 405 466 36,000  Level Cleveland Center
18:12 42.0539 -77.5711 289° West 405 466 36,000  Level Cleveland Center
18:13 42.0931 -77.7122 291° West 400 460 36,000  Level Cleveland Center
18:14 42.1297 -77.8533 289° West 405 466 36,000  Level Cleveland Center
18:15 42.1683 -77.9917 291° West 400 460 36,000  Level Cleveland Center
18:16 42.2664 -78.0886 324° Northwest 405 466 36,000  Level Cleveland Center
18:17 42.3764 -78.1658 333° Northwest 420 483 36,000  Level Cleveland Center
18:18 42.4308 -78.2792 303° West 420 483 36,000  Level Cleveland Center
18:19 42.4422 -78.4281 276° West 394 453 36,000  Level Cleveland Center
18:20 42.4511 -78.5767 275° West 385 443 36,000  Level Cleveland Center
18:21 42.4578 -78.7258 274° West 395 455 36,000  Level Cleveland Center
18:22 42.4683 -78.8747 276° West 395 455 36,000  Level Cleveland Center
18:23 42.4767 -79.0236 274° West 400 460 36,000  Level Cleveland Center
18:24 42.4869 -79.1725 275° West 405 466 36,000  Level Cleveland Center
18:25 42.4950 -79.3244 274° West 405 466 36,000  Level Cleveland Center
18:26 42.5092 -79.4706 278° West 405 466 36,000  Level Cleveland Center
18:27 42.5956 -79.5819 317° Northwest 391 450 36,000  Level Cleveland Center
18:28 42.6922 -79.6792 324° Northwest 402 463 36,000  Level Cleveland Center
18:29 42.7161 -79.8231 283° West 391 450 36,000  Level Cleveland Center
18:30 42.6689 -79.9564 244° Southwest 354 407 36,000  Level Cleveland Center
18:31 42.6092 -80.0839 238° Southwest 391 450 36,000  Level Cleveland Center
18:32 42.5597 -80.2167 243° Southwest 391 450 36,000  Level Cleveland Center
18:33 42.5414 -80.3550 260° West 380 437 36,000  Level Cleveland Center
18:34 42.5456 -80.5211 272° West 390 449 36,000  Level Cleveland Center
18:35 42.5519 -80.6706 273° West 395 455 36,000  Level Cleveland Center
18:36 42.5578 -80.8200 273° West 402 463 36,000  Level Cleveland Center
18:37 42.5639 -80.9694 273° West 402 463 36,000  Level Cleveland Center
18:38 42.5672 -81.1161 272° West 402 463 36,000  Level Cleveland Center
18:39 42.5728 -81.2711 273° West 397 457 36,000  Level Cleveland Center
18:40 42.5800 -81.4178 274° West 404 465 36,000  Level Cleveland Center
18:41 42.6019 -81.5647 282° West 404 465 36,000  Level Cleveland Center
18:42 42.6278 -81.7092 284° West 409 471 36,000  Level Cleveland Center
18:43 42.6553 -81.8564 284° West 409 471 36,000  Level Cleveland Center
18:44 42.6786 -82.0036 282° West 409 471 36,000  Level Cleveland Center
18:45 42.7036 -82.1542 283° West 409 471 36,000  Level Cleveland Center
18:46 42.7286 -82.3044 283° West 414 476 36,000  Level Cleveland Center
18:47 42.7575 -82.4581 284° West 414 476 36,000  Level Cleveland Center
18:48 42.7783 -82.5914 282° West 419 482 36,000  Level Cleveland Center
18:49 42.8028 -82.7394 283° West 409 471 36,000  Level Cleveland Center
18:50 42.8289 -82.8875 284° West 403 464 36,000  Level Cleveland Center
18:51 42.8531 -83.0358 283° West 403 464 36,000  Level Cleveland Center
18:52 42.8769 -83.1842 282° West 403 464 36,000 -240 Level Cleveland Center
18:53 42.8986 -83.3294 282° West 398 458 35,600 -720 Descending Cleveland Center
18:54 42.9411 -83.4647 293° West 392 451 34,600 -1,020 Descending Cleveland Center
18:55 42.9939 -83.5950 299° West 392 451 33,600 -1,020 Descending Cleveland Center
18:56 43.0489 -83.7228 301° West 392 451 32,600 -1,020 Descending Cleveland Center
18:57 43.0492 -83.8675 270° West 384 442 31,600 -1,020 Descending Cleveland Center
18:58 43.0136 -84.0133 252° West 387 445 30,600 -1,020 Descending Cleveland Center
18:59 42.9797 -84.1647 253° West 393 452 29,600 -960 Descending Cleveland Center
19:00 42.9461 -84.3103 253° West 404 465 28,700 -960 Descending Cleveland Center
19:00 42.9314 -84.3767 253° West 410 472 28,200 -480 Descending Chicago Center
19:01 42.8900 -84.5550 252° West 411 473 28,000 -120 Descending Chicago Center
19:02 42.8719 -84.7011 260° West 386 444 28,000  Level Chicago Center
19:03 42.8583 -84.8325 262° West 354 407 28,000  Level Chicago Center
19:04 42.8439 -84.9672 262° West 358 412 28,000 -120 Level Chicago Center
19:05 42.8297 -85.1003 262° West 357 411 27,800 -840 Descending Chicago Center
19:06 42.8156 -85.2339 262° West 356 410 26,300 -900 Descending Chicago Center
19:07 42.8014 -85.3619 261° West 345 397 26,000 -180 Descending Chicago Center
19:08 42.7828 -85.5186 261° West 348 400 26,000  Level Chicago Center
19:09 42.7600 -85.6483 257° West 349 402 26,000  Level Chicago Center
19:10 42.7339 -85.7911 256° West 378 435 26,000 -600 Level Chicago Center
19:11 42.7061 -85.9431 256° West 406 467 24,800 -1,620 Descending Chicago Center
19:12 42.6792 -86.0911 256° West 404 465 22,700 -2,040 Descending Chicago Center
19:13 42.6539 -86.2300 256° West 383 441 20,600 -1,320 Descending Chicago Center
19:14 42.6278 -86.3656 255° West 372 428 20,000 -1,080 Descending Chicago Center
19:15 42.6025 -86.5014 256° West 371 427 18,400 -1,620 Descending Chicago Center
19:17 42.5783 -86.6314 256° West 359 413 16,700 -1,800 Descending Chicago Center
19:18 42.5494 -86.7750 255° West 334 384 14,800 -1,800 Descending Chicago Center
19:19 42.5181 -86.8900 250° West 329 379 13,100 -1,620 Descending Chicago Center
19:20 42.4889 -86.9950 249° West 311 358 11,600 -1,200 Descending Chicago Center
19:21 42.4619 -87.0883 249° West 274 315 10,700 -1,020 Descending Chicago Center
19:22 42.4353 -87.1842 249° West 273 314 9,600 -840 Descending Chicago Center
19:23 42.4092 -87.2789 250° West 270 311 9,000 -840 Descending Chicago Center
19:24 42.3783 -87.3894 249° West 264 304 7,900 -1,020 Descending Chicago Center
19:25 42.3436 -87.4725 241° Southwest 260 299 7,000 -540 Descending Chicago Center
19:26 42.3025 -87.5558 236° Southwest 259 298 6,900 -780 Descending Chicago Center
19:27 42.2489 -87.6178 221° Southwest 258 297 5,500 -960 Descending Chicago Center
19:28 42.2011 -87.6722 220° Southwest 236 272 5,000 -360 Descending Chicago Center
19:29 42.1567 -87.7222 220° Southwest 214 246 4,800 -780 Descending Chicago Center
19:30 42.1039 -87.7800 219° Southwest 208 239 3,400 -1,140 Descending Chicago Center
19:31 42.0667 -87.8233 221° Southwest 195 224 2,500 -1,020 Descending Chicago Center
19:31 42.0500 -87.8333 204° Southwest 176 203 2,100 -960 Descending Chicago TRACON
19:32 42.0167 -87.8667 217° Southwest 137 158 1,300 -840 Descending Chicago TRACON
19:35 41.9817 -87.9067 217° Southwest  Level Estimated